Time;durP1;ratioP1;P1;durP2;ratioP2;P2;SDS_P1;SDS_P2;PMS_P1;PMS_P2;Temp;Humidity;BMP_temperature;BMP_pressure;BME280_temperature;BME280_humidity;BME280_pressure;Samples;Min_cycle;Max_cycle;Signal;HPM_P1;HPM_P2
2022/01/30 00:06:36;;;;;;;8.07;1.70;;;20.40;47.00;;;;;;20868156;28;20037;-77
2022/01/30 00:16:42;;;;;;;15.10;1.88;;;20.40;46.90;;;;;;20916944;28;20059;-77
2022/01/30 00:26:43;;;;;;;14.85;2.40;;;20.40;47.00;;;;;;20995498;28;20031;-77
2022/01/30 00:36:43;;;;;;;8.23;2.45;;;20.40;46.50;;;;;;20967551;28;20036;-77
2022/01/30 00:46:45;;;;;;;10.52;2.90;;;20.40;45.80;;;;;;20978517;28;20552;-76
2022/01/30 00:56:45;;;;;;;12.13;2.25;;;20.30;44.90;;;;;;20989474;28;20060;-76
2022/01/30 01:06:49;;;;;;;9.38;2.38;;;20.30;44.20;;;;;;20979027;28;20497;-77
2022/01/30 01:27:09;;;;;;;8.35;2.10;;;20.20;43.20;;;;;;20984659;28;20040;-76
2022/01/30 01:47:21;;;;;;;8.80;2.17;;;20.20;42.70;;;;;;20952891;28;20053;-81
2022/01/30 01:57:23;;;;;;;10.82;2.65;;;20.20;42.30;;;;;;21001873;28;20040;-79
2022/01/30 02:28:08;;;;;;;8.35;2.28;;;20.10;41.30;;;;;;21015504;28;20398;-79
2022/01/30 02:38:09;;;;;;;10.43;3.10;;;20.10;41.20;;;;;;21008939;28;20158;-80
2022/01/30 02:58:10;;;;;;;6.82;2.13;;;20.10;40.80;;;;;;20986467;28;20024;-80
2022/01/30 03:08:10;;;;;;;7.85;2.78;;;20.00;40.60;;;;;;20975266;28;20111;-80
2022/01/30 03:18:11;;;;;;;7.28;2.40;;;20.00;41.00;;;;;;21006210;28;20082;-79
2022/01/30 03:28:12;;;;;;;6.28;2.13;;;20.00;40.50;;;;;;21011369;28;20083;-80
2022/01/30 03:38:14;;;;;;;7.15;2.22;;;19.90;40.30;;;;;;20973844;28;20032;-80
2022/01/30 03:48:15;;;;;;;11.25;2.38;;;20.00;40.20;;;;;;21014395;28;20111;-80
2022/01/30 03:58:19;;;;;;;7.38;2.13;;;20.00;39.90;;;;;;20997362;28;20074;-79
2022/01/30 04:08:20;;;;;;;8.73;2.95;;;19.90;39.80;;;;;;20995108;28;20020;-79
2022/01/30 04:18:21;;;;;;;8.38;2.85;;;19.90;39.60;;;;;;20993011;28;20028;-80
2022/01/30 04:28:22;;;;;;;11.57;2.42;;;19.90;39.50;;;;;;20967692;28;20029;-80
2022/01/30 04:38:30;;;;;;;11.27;3.78;;;19.90;39.40;;;;;;20963706;28;20056;-80
2022/01/30 04:59:08;;;;;;;6.90;2.58;;;19.90;39.50;;;;;;20965010;28;20108;-79
2022/01/30 05:09:09;;;;;;;10.00;3.15;;;19.80;39.30;;;;;;20948284;28;20506;-79
2022/01/30 05:19:12;;;;;;;8.02;2.53;;;19.80;39.20;;;;;;20959744;28;20199;-79
2022/01/30 05:29:14;;;;;;;7.22;2.00;;;19.80;39.10;;;;;;20974143;28;20056;-80
2022/01/30 05:39:15;;;;;;;9.32;2.38;;;19.80;39.00;;;;;;20993634;28;20055;-79
2022/01/30 05:49:16;;;;;;;10.88;3.25;;;19.80;38.90;;;;;;20969039;28;20522;-80
2022/01/30 05:59:17;;;;;;;8.88;2.55;;;19.80;38.90;;;;;;20951937;28;20033;-79
2022/01/30 06:09:19;;;;;;;11.25;3.55;;;19.80;38.90;;;;;;20963255;28;20029;-79
2022/01/30 06:19:22;;;;;;;8.43;2.90;;;19.70;38.80;;;;;;20952381;28;20487;-79
2022/01/30 06:29:22;;;;;;;9.38;2.72;;;19.70;38.70;;;;;;20954716;28;20040;-79
2022/01/30 06:39:23;;;;;;;14.88;4.25;;;19.60;38.60;;;;;;20958043;28;20065;-79
2022/01/30 06:49:24;;;;;;;17.80;3.87;;;19.60;38.50;;;;;;20948921;28;20399;-77
2022/01/30 06:59:24;;;;;;;15.50;4.03;;;19.50;38.20;;;;;;20985039;28;21238;-76
2022/01/30 07:09:25;;;;;;;15.15;5.30;;;19.30;38.10;;;;;;21005638;28;20067;-79
2022/01/30 07:19:25;;;;;;;14.75;4.78;;;19.30;37.90;;;;;;21017743;28;20107;-77
2022/01/30 07:29:26;;;;;;;10.90;4.28;;;19.30;38.00;;;;;;21029316;28;20028;-77
2022/01/30 07:39:29;;;;;;;10.25;4.07;;;19.30;38.00;;;;;;20977483;22;20043;-77
2022/01/30 07:49:30;;;;;;;15.60;4.20;;;19.30;37.80;;;;;;20988600;28;20029;-77
2022/01/30 07:59:30;;;;;;;17.17;5.13;;;19.40;37.70;;;;;;20967593;28;20036;-76
2022/01/30 08:09:31;;;;;;;12.23;3.92;;;19.60;37.60;;;;;;20991913;28;20040;-77
2022/01/30 08:19:32;;;;;;;12.40;3.97;;;19.70;37.80;;;;;;20982100;28;20112;-77
2022/01/30 08:29:32;;;;;;;11.75;4.88;;;19.90;38.10;;;;;;20993158;28;20063;-77
2022/01/30 08:39:34;;;;;;;15.97;3.80;;;20.00;38.50;;;;;;20991175;28;20051;-77
2022/01/30 08:49:34;;;;;;;13.20;4.55;;;20.00;38.50;;;;;;20961659;28;20809;-76
2022/01/30 08:59:35;;;;;;;12.55;5.05;;;20.10;40.10;;;;;;20979141;28;20041;-77
2022/01/30 09:09:36;;;;;;;10.55;3.40;;;20.10;39.60;;;;;;20925073;28;20068;-74
2022/01/30 09:19:36;;;;;;;9.10;3.50;;;20.10;39.70;;;;;;20949894;28;20564;-77
2022/01/30 09:29:38;;;;;;;9.50;3.53;;;20.10;39.10;;;;;;20923169;28;20566;-76
2022/01/30 09:39:38;;;;;;;12.43;4.13;;;20.10;38.40;;;;;;20950114;28;20109;-76
2022/01/30 09:49:43;;;;;;;12.17;3.83;;;20.30;39.40;;;;;;20937187;28;20060;-76
2022/01/30 09:59:44;;;;;;;14.55;3.83;;;20.30;41.00;;;;;;20894795;28;20467;-76
2022/01/30 10:07:20;;;;;;;16.08;4.10;;;20.30;39.30;;;;;;1026107;28;20671;-78
2022/01/30 10:07:54;;;;;;;19.17;4.95;;;19.70;39.40;;;;;;1030759;28;20545;-78
2022/01/30 10:08:28;;;;;;;19.33;4.88;;;19.60;39.20;;;;;;1022254;28;20057;-77
2022/01/30 10:09:09;;;;;;;21.17;4.82;;;19.60;38.50;;;;;;1022725;28;20026;-78
2022/01/30 10:09:46;;;;;;;18.75;4.82;;;19.60;37.70;;;;;;991032;28;20157;-77
2022/01/30 10:10:19;;;;;;;18.55;4.78;;;19.60;38.20;;;;;;1021617;28;20030;-77
2022/01/30 10:11:00;;;;;;;21.10;5.72;;;19.60;37.10;;;;;;1031756;28;20533;-77
2022/01/30 10:12:00;;;;;;;17.08;6.25;;;19.60;37.60;;;;;;1014360;28;20066;-78
2022/01/30 10:12:31;;;;;;;19.13;6.13;;;19.50;36.20;;;;;;1025220;28;20096;-76
2022/01/30 10:13:11;;;;;;;21.30;6.60;;;19.40;37.50;;;;;;1030706;28;20031;-77
2022/01/30 10:13:42;;;;;;;26.65;5.97;;;19.30;38.90;;;;;;1022641;28;20055;-77
2022/01/30 10:14:14;;;;;;;23.23;5.45;;;19.40;38.60;;;;;;1011312;28;20070;-76
2022/01/30 10:14:48;;;;;;;17.58;5.90;;;19.40;39.00;;;;;;1021260;28;20405;-78
2022/01/30 10:15:19;;;;;;;18.52;5.57;;;19.50;39.20;;;;;;1027762;28;20173;-76
2022/01/30 10:15:56;;;;;;;32.60;5.82;;;19.60;39.60;;;;;;1030785;28;20105;-77
2022/01/30 10:16:27;;;;;;;21.88;6.10;;;19.70;40.10;;;;;;1030021;28;20022;-76
2022/01/30 10:16:57;;;;;;;17.13;5.00;;;19.70;39.70;;;;;;1031054;28;20474;-76
2022/01/30 10:17:39;;;;;;;24.63;6.32;;;19.80;39.60;;;;;;1030995;28;20456;-76
2022/01/30 10:18:10;;;;;;;24.70;7.28;;;19.90;39.50;;;;;;1027898;28;20054;-77
2022/01/30 10:18:45;;;;;;;21.65;6.00;;;20.00;40.40;;;;;;1031047;28;20023;-76
2022/01/30 10:19:19;;;;;;;18.10;5.57;;;20.10;40.00;;;;;;1031073;28;20015;-76
2022/01/30 10:19:59;;;;;;;22.58;6.60;;;20.20;40.30;;;;;;1023020;28;20294;-77
2022/01/30 10:20:37;;;;;;;14.35;4.75;;;20.30;39.60;;;;;;1028398;28;20039;-76
2022/01/30 10:21:19;;;;;;;21.48;5.25;;;20.40;39.00;;;;;;1030662;28;20090;-76
2022/01/30 10:22:03;;;;;;;19.92;5.43;;;20.50;38.40;;;;;;1030819;28;20050;-77
2022/01/30 10:22:54;;;;;;;21.80;5.97;;;20.50;38.70;;;;;;1030513;28;20022;-77
2022/01/30 10:23:35;;;;;;;25.63;5.95;;;20.70;38.20;;;;;;1030594;28;20045;-76
2022/01/30 10:24:23;;;;;;;;;;;20.80;38.50;;;;;;1026370;28;20531;-77
2022/01/30 10:24:53;;;;;;;23.25;5.63;;;20.80;38.10;;;;;;1030600;28;19902;-76
2022/01/30 10:25:26;;;;;;;20.38;5.95;;;20.90;38.20;;;;;;1030934;28;20023;-76
2022/01/30 10:25:56;;;;;;;23.48;5.38;;;20.90;38.20;;;;;;1030973;28;20030;-76
2022/01/30 10:26:31;;;;;;;24.42;6.38;;;20.90;38.30;;;;;;1030813;28;20746;-75
2022/01/30 10:27:21;;;;;;;19.90;5.25;;;21.00;38.00;;;;;;1030108;28;20022;-76
2022/01/30 10:28:07;;;;;;;22.77;5.57;;;21.00;38.70;;;;;;1029334;28;20485;-77
2022/01/30 10:28:40;;;;;;;22.05;6.03;;;21.10;38.10;;;;;;1028373;28;20023;-77
2022/01/30 10:29:24;;;;;;;24.90;5.60;;;21.10;38.50;;;;;;1030650;28;20090;-77
2022/01/30 10:30:06;;;;;;;27.40;6.22;;;21.20;38.20;;;;;;1031120;28;20018;-77
2022/01/30 10:30:51;;;;;;;20.95;5.50;;;21.20;38.50;;;;;;1030753;28;20073;-77
2022/01/30 10:31:24;;;;;;;41.38;6.45;;;21.20;38.80;;;;;;1027674;28;20569;-76
2022/01/30 10:32:07;;;;;;;39.60;7.25;;;21.30;39.00;;;;;;1028956;28;20018;-77
2022/01/30 10:32:38;;;;;;;28.17;6.07;;;21.30;39.20;;;;;;1031559;28;20018;-77
2022/01/30 10:33:09;;;;;;;34.95;6.60;;;21.40;40.00;;;;;;1031878;28;20387;-76
2022/01/30 10:33:47;;;;;;;36.83;7.20;;;21.40;40.50;;;;;;1031606;28;20051;-77
2022/01/30 10:34:21;;;;;;;37.58;7.05;;;21.40;40.20;;;;;;1030970;28;20015;-76
2022/01/30 10:35:04;;;;;;;40.97;8.38;;;21.50;40.10;;;;;;1031118;28;20117;-77
2022/01/30 10:35:56;;;;;;;30.73;8.30;;;21.50;39.80;;;;;;1031177;28;20015;-76
2022/01/30 10:36:31;;;;;;;88.25;13.73;;;21.60;39.70;;;;;;1031254;28;20015;-77
2022/01/30 10:37:12;;;;;;;50.67;9.20;;;21.60;40.70;;;;;;1031114;28;20018;-77
2022/01/30 10:37:43;;;;;;;;;;;21.60;40.00;;;;;;1032081;28;20089;-77
2022/01/30 10:38:35;;;;;;;28.85;6.85;;;21.60;39.40;;;;;;1031299;28;19953;-78
2022/01/30 10:39:17;;;;;;;41.42;7.10;;;21.70;39.50;;;;;;1031484;28;20025;-76
2022/01/30 10:39:57;;;;;;;41.50;6.97;;;21.70;39.70;;;;;;1030628;28;20015;-76
2022/01/30 10:40:36;;;;;;;60.50;8.82;;;21.80;39.50;;;;;;1027251;28;20058;-76
2022/01/30 10:41:14;;;;;;;44.55;8.15;;;21.80;39.00;;;;;;1029995;28;20029;-76
2022/01/30 10:41:52;;;;;;;47.00;9.45;;;21.90;38.90;;;;;;1029053;28;20054;-76
2022/01/30 10:42:31;;;;;;;49.88;8.02;;;21.90;38.80;;;;;;1028428;28;20019;-75
2022/01/30 10:43:02;;;;;;;38.55;7.15;;;21.90;39.20;;;;;;1030420;28;20027;-76
2022/01/30 10:43:55;;;;;;;43.25;10.45;;;21.90;39.00;;;;;;1030818;28;20106;-77
2022/01/30 10:44:25;;;;;;;51.67;10.00;;;22.00;39.00;;;;;;1024630;28;20476;-76
2022/01/30 10:44:56;;;;;;;39.70;8.02;;;22.00;39.00;;;;;;1029640;28;20019;-76
2022/01/30 10:45:31;;;;;;;47.10;8.30;;;22.00;38.90;;;;;;1030971;28;20065;-76
2022/01/30 10:46:17;;;;;;;51.65;7.63;;;22.00;39.10;;;;;;1030293;28;20022;-77
2022/01/30 10:46:51;;;;;;;53.22;8.70;;;22.10;39.80;;;;;;1029903;28;20027;-77
2022/01/30 10:47:22;;;;;;;42.03;7.85;;;22.10;39.50;;;;;;1031358;28;20030;-76
2022/01/30 10:48:11;;;;;;;45.33;8.35;;;22.10;40.00;;;;;;1031493;28;20505;-77
2022/01/30 10:48:59;;;;;;;42.55;7.55;;;22.10;40.00;;;;;;1031557;28;20031;-77
2022/01/30 10:49:29;;;;;;;40.63;7.32;;;22.20;39.90;;;;;;1031902;28;20021;-76
2022/01/30 10:50:07;;;;;;;31.35;6.60;;;22.20;39.40;;;;;;1031409;28;20025;-76
2022/01/30 10:50:42;;;;;;;44.90;8.73;;;22.20;39.40;;;;;;1031641;28;20473;-76
2022/01/30 10:51:13;;;;;;;50.92;8.40;;;22.20;38.90;;;;;;1031572;28;20062;-77
2022/01/30 10:51:55;;;;;;;41.90;8.95;;;22.20;38.70;;;;;;1031800;28;20022;-77
2022/01/30 10:52:26;;;;;;;31.05;6.47;;;22.20;38.80;;;;;;1031328;28;20011;-77
2022/01/30 10:52:59;;;;;;;34.13;7.72;;;22.30;38.60;;;;;;1031444;28;20022;-77
2022/01/30 10:53:30;;;;;;;51.92;7.55;;;22.30;38.60;;;;;;1031596;28;20023;-77
2022/01/30 10:54:09;;;;;;;38.28;7.97;;;22.30;38.40;;;;;;1031463;28;20069;-77
2022/01/30 10:54:40;;;;;;;47.28;10.55;;;22.30;39.40;;;;;;1031563;28;20026;-77
2022/01/30 10:55:10;;;;;;;35.78;9.25;;;22.30;39.00;;;;;;1031558;28;20026;-76
2022/01/30 10:55:44;;;;;;;54.17;10.60;;;22.40;38.60;;;;;;1031631;28;20369;-76
2022/01/30 10:56:34;;;;;;;63.35;13.40;;;22.40;39.20;;;;;;1031794;28;20025;-76
2022/01/30 10:57:08;;;;;;;65.03;13.00;;;22.40;39.40;;;;;;1031293;28;20625;-77
2022/01/30 10:57:40;;;;;;;32.35;8.52;;;22.40;38.80;;;;;;1031079;28;20014;-77
2022/01/30 10:58:17;;;;;;;51.10;8.63;;;22.40;38.60;;;;;;1031118;28;20029;-77
2022/01/30 10:59:04;;;;;;;54.90;11.18;;;22.40;39.50;;;;;;1031620;28;20654;-76
2022/01/30 10:59:43;;;;;;;51.38;10.73;;;22.40;40.20;;;;;;1031876;28;20026;-76
2022/01/30 11:00:14;;;;;;;51.92;12.45;;;22.40;40.20;;;;;;1032057;28;20533;-76
2022/01/30 11:00:49;;;;;;;49.53;9.52;;;22.50;40.70;;;;;;1032267;28;20011;-77
2022/01/30 11:01:23;;;;;;;60.35;12.95;;;22.50;39.40;;;;;;1031615;28;20066;-76
2022/01/30 11:01:53;;;;;;;52.83;13.07;;;22.50;39.60;;;;;;1031381;28;20518;-76
2022/01/30 11:02:25;;;;;;;57.60;12.23;;;22.50;38.60;;;;;;1031758;28;20022;-76
2022/01/30 11:02:55;;;;;;;40.00;9.32;;;22.50;39.10;;;;;;1031223;28;20011;-77
2022/01/30 11:03:50;;;;;;;45.17;10.85;;;22.50;39.00;;;;;;1029255;28;20090;-77
2022/01/30 11:04:26;;;;;;;48.80;10.48;;;22.50;40.20;;;;;;1027472;28;20441;-77
2022/01/30 11:05:10;;;;;;;47.10;10.93;;;22.60;40.00;;;;;;1028603;28;20069;-77
2022/01/30 11:05:58;;;;;;;48.30;10.98;;;22.60;40.20;;;;;;1031209;28;20023;-76
2022/01/30 11:06:30;;;;;;;36.08;9.43;;;22.60;39.10;;;;;;1027465;28;20106;-77
2022/01/30 11:07:04;;;;;;;47.72;11.73;;;22.60;40.00;;;;;;1027114;28;20387;-77
2022/01/30 11:07:36;;;;;;;55.58;11.48;;;22.60;38.30;;;;;;1031245;28;20014;-77
2022/01/30 11:08:22;;;;;;;39.53;10.57;;;22.70;38.60;;;;;;1031271;28;20015;-77
2022/01/30 11:08:53;;;;;;;47.83;10.40;;;22.70;39.70;;;;;;1028987;28;20026;-77
2022/01/30 11:09:29;;;;;;;37.40;10.00;;;22.70;39.00;;;;;;1029285;28;20143;-77
2022/01/30 11:10:14;;;;;;;41.53;9.73;;;22.70;38.90;;;;;;1031954;28;20042;-77
2022/01/30 11:10:45;;;;;;;48.80;9.98;;;22.70;39.40;;;;;;1032064;28;20137;-76
2022/01/30 11:11:54;;;;;;;45.03;9.10;;;22.70;38.60;;;;;;1031902;28;20018;-76
2022/01/30 11:12:40;;;;;;;39.70;10.77;;;22.70;38.20;;;;;;1031588;28;20077;-77
2022/01/30 11:13:14;;;;;;;45.13;10.38;;;22.70;38.70;;;;;;1031846;28;20015;-76
2022/01/30 11:14:35;;;;;;;45.55;9.77;;;22.70;37.80;;;;;;1031608;28;20070;-77
2022/01/30 11:15:33;;;;;;;38.58;7.93;;;22.80;38.10;;;;;;1030441;28;20019;-76
2022/01/30 11:17:27;;;;;;;33.92;8.70;;;22.80;37.80;;;;;;1031804;28;20439;-77
2022/01/30 11:18:00;;;;;;;28.77;8.27;;;22.80;38.90;;;;;;1032049;28;20050;-77
2022/01/30 11:18:31;;;;;;;47.03;11.23;;;22.80;38.60;;;;;;1029944;28;20042;-77
2022/01/30 11:19:02;;;;;;;46.40;8.88;;;22.80;38.00;;;;;;1028284;28;20027;-77
2022/01/30 11:19:39;;;;;;;36.97;8.60;;;22.80;38.10;;;;;;1028490;28;20042;-77
2022/01/30 11:20:12;;;;;;;39.38;9.10;;;22.80;38.80;;;;;;1028143;28;20023;-77
2022/01/30 11:20:45;;;;;;;31.60;8.50;;;22.80;38.80;;;;;;1028033;28;20469;-78
2022/01/30 11:21:20;;;;;;;39.45;10.43;;;22.80;38.20;;;;;;1028105;28;20022;-76
2022/01/30 11:21:57;;;;;;;31.63;9.27;;;22.80;38.30;;;;;;1027753;28;20022;-78
2022/01/30 11:22:30;;;;;;;38.38;8.52;;;22.80;37.80;;;;;;1027483;28;20521;-77
2022/01/30 11:23:04;;;;;;;40.65;9.52;;;22.80;38.60;;;;;;1027798;28;20011;-77
2022/01/30 11:23:36;;;;;;;32.20;9.55;;;22.80;38.00;;;;;;1028012;28;20030;-77
2022/01/30 11:24:10;;;;;;;38.95;10.25;;;22.80;37.80;;;;;;1028142;28;20110;-77
2022/01/30 11:24:46;;;;;;;38.72;9.25;;;22.80;37.90;;;;;;1028121;28;20014;-76
2022/01/30 11:25:18;;;;;;;32.33;9.02;;;22.80;37.90;;;;;;1028056;28;20026;-77
2022/01/30 11:25:49;;;;;;;36.78;10.75;;;22.80;38.60;;;;;;1028216;28;20481;-77
2022/01/30 11:26:20;;;;;;;37.80;9.38;;;22.80;38.60;;;;;;1027918;28;20093;-77
2022/01/30 11:26:51;;;;;;;46.95;10.07;;;22.80;38.40;;;;;;1028004;28;20053;-78
2022/01/30 11:27:22;;;;;;;41.38;10.27;;;22.80;38.60;;;;;;1028647;28;20023;-77
2022/01/30 11:27:55;;;;;;;37.90;9.68;;;22.80;38.70;;;;;;1028785;28;20105;-77
2022/01/30 11:28:25;;;;;;;38.22;10.73;;;22.80;38.60;;;;;;1028641;28;20019;-77
2022/01/30 11:28:57;;;;;;;33.45;9.10;;;22.80;38.70;;;;;;1027992;28;20046;-76
2022/01/30 11:29:28;;;;;;;39.13;9.95;;;22.80;40.00;;;;;;1028137;28;20118;-76
2022/01/30 11:29:59;;;;;;;58.90;11.88;;;22.80;38.10;;;;;;1028161;28;20139;-77
2022/01/30 11:30:34;;;;;;;35.50;9.90;;;22.80;38.90;;;;;;1028148;28;20022;-77
2022/01/30 11:31:05;;;;;;;46.13;11.15;;;22.90;38.30;;;;;;1027915;28;20026;-77
2022/01/30 11:31:36;;;;;;;40.25;10.00;;;22.90;38.10;;;;;;1028173;28;20023;-77
2022/01/30 11:32:08;;;;;;;42.60;10.98;;;22.90;38.00;;;;;;1027991;28;20027;-77
2022/01/30 11:32:39;;;;;;;39.67;10.18;;;22.90;38.00;;;;;;1027826;28;20075;-77
2022/01/30 11:33:10;;;;;;;39.33;10.73;;;22.80;37.80;;;;;;1028002;28;20069;-77
2022/01/30 11:33:45;;;;;;;39.28;10.02;;;22.90;38.80;;;;;;1028257;28;20073;-76
2022/01/30 11:34:16;;;;;;;41.88;9.73;;;22.90;37.90;;;;;;1027969;28;20023;-77
2022/01/30 11:34:47;;;;;;;43.58;10.05;;;22.90;38.50;;;;;;1028155;28;20022;-77
2022/01/30 11:35:17;;;;;;;37.70;9.43;;;22.90;38.70;;;;;;1028025;28;20500;-77
2022/01/30 11:35:49;;;;;;;34.60;9.30;;;22.90;38.70;;;;;;1028170;28;20069;-77
2022/01/30 11:36:23;;;;;;;44.63;10.68;;;22.90;38.00;;;;;;1028248;28;20027;-77
2022/01/30 11:36:54;;;;;;;37.33;9.40;;;23.00;38.00;;;;;;1028395;28;20054;-77
2022/01/30 11:37:27;;;;;;;49.53;10.82;;;23.00;38.10;;;;;;1029770;28;20021;-77
2022/01/30 11:37:58;;;;;;;36.05;10.98;;;22.90;38.00;;;;;;1029017;28;20007;-77
2022/01/30 11:38:29;;;;;;;40.63;9.88;;;22.90;38.30;;;;;;1028964;28;20023;-76
2022/01/30 11:39:01;;;;;;;30.95;9.55;;;23.00;38.00;;;;;;1029886;28;20022;-77
2022/01/30 11:39:32;;;;;;;39.83;10.82;;;23.00;38.00;;;;;;1028503;28;20029;-77
2022/01/30 11:40:13;;;;;;;37.72;10.32;;;23.00;38.00;;;;;;1029209;28;20110;-77
2022/01/30 11:41:31;;;;;;;32.90;10.30;;;23.00;39.00;;;;;;1028743;28;20022;-77
2022/01/30 11:42:10;;;;;;;47.72;10.65;;;23.00;38.60;;;;;;1027177;28;20449;-77
2022/01/30 11:42:47;;;;;;;56.65;10.77;;;23.00;38.40;;;;;;1027970;28;20043;-77
2022/01/30 11:43:21;;;;;;;48.88;10.73;;;23.00;38.30;;;;;;1028498;28;20015;-77
2022/01/30 11:44:19;;;;;;;48.25;11.15;;;23.00;39.50;;;;;;1028581;28;20015;-77
2022/01/30 11:45:04;;;;;;;55.58;10.80;;;22.90;38.30;;;;;;1027881;28;20505;-78
2022/01/30 11:45:35;;;;;;;53.40;11.18;;;22.90;39.10;;;;;;1027718;28;20536;-76
2022/01/30 11:46:14;;;;;;;39.65;10.85;;;22.90;38.40;;;;;;1028326;28;20026;-77
2022/01/30 11:46:57;;;;;;;44.80;10.25;;;22.90;38.30;;;;;;1028618;28;20019;-77
2022/01/30 11:47:28;;;;;;;51.30;12.52;;;22.90;38.40;;;;;;1028120;28;20023;-76
2022/01/30 11:48:03;;;;;;;40.25;9.13;;;22.90;39.10;;;;;;1028049;28;20097;-76
2022/01/30 11:48:35;;;;;;;54.03;12.55;;;22.90;38.60;;;;;;1031006;28;20027;-76
2022/01/30 11:49:15;;;;;;;53.80;11.70;;;22.90;38.60;;;;;;1030621;28;20019;-76
2022/01/30 11:49:48;;;;;;;;;;;22.90;38.60;;;;;;1028505;28;20117;-76
2022/01/30 11:50:21;;;;;;;34.50;10.48;;;22.90;38.60;;;;;;1028214;28;20327;-77
2022/01/30 11:51:02;;;;;;;40.15;10.93;;;22.90;39.10;;;;;;1028089;28;20043;-77
2022/01/30 11:51:52;;;;;;;36.42;11.07;;;22.90;40.10;;;;;;1028015;28;20027;-77
2022/01/30 11:52:48;;;;;;;41.00;9.40;;;22.90;39.00;;;;;;1027865;28;20110;-77
2022/01/30 11:53:28;;;;;;;35.17;9.52;;;22.90;39.00;;;;;;1028327;28;20069;-76
2022/01/30 11:53:59;;;;;;;46.13;10.23;;;22.90;39.70;;;;;;1028030;28;20385;-77
2022/01/30 11:54:50;;;;;;;39.20;9.63;;;22.90;39.70;;;;;;1028030;28;20105;-77
2022/01/30 11:55:57;;;;;;;38.83;9.60;;;22.90;39.00;;;;;;1027506;28;20026;-77
2022/01/30 11:56:33;;;;;;;43.95;10.30;;;23.00;39.00;;;;;;1019414;29;20565;-77
2022/01/30 11:57:29;;;;;;;52.03;10.63;;;22.90;38.80;;;;;;1020980;29;20228;-76
2022/01/30 11:58:00;;;;;;;36.47;9.07;;;23.00;38.90;;;;;;1023491;29;20030;-76
2022/01/30 11:58:31;;;;;;;46.35;9.80;;;22.90;38.70;;;;;;1023832;29;20018;-77
2022/01/30 11:59:06;;;;;;;36.22;8.95;;;22.90;38.80;;;;;;1023864;29;20151;-77
2022/01/30 11:59:38;;;;;;;37.67;10.75;;;23.00;38.80;;;;;;1023791;29;20136;-77
2022/01/30 12:00:37;;;;;;;31.45;7.88;;;23.00;38.90;;;;;;1023612;29;20106;-76
2022/01/30 12:01:37;;;;;;;55.47;10.52;;;23.00;38.90;;;;;;1023684;29;20027;-76
2022/01/30 12:02:33;;;;;;;37.47;8.88;;;23.00;39.00;;;;;;1023733;29;20090;-76
2022/01/30 12:03:29;;;;;;;36.47;9.32;;;23.00;38.90;;;;;;1023881;29;20426;-77
2022/01/30 12:04:04;;;;;;;37.63;9.32;;;23.00;39.10;;;;;;1023611;29;20034;-77
2022/01/30 12:04:53;;;;;;;42.70;9.35;;;23.00;39.00;;;;;;1024126;29;20126;-77
2022/01/30 12:05:35;;;;;;;43.00;8.35;;;23.00;39.20;;;;;;1023915;29;20031;-77
2022/01/30 12:06:20;;;;;;;37.47;9.25;;;23.00;39.00;;;;;;1023692;29;20101;-77
2022/01/30 12:06:51;;;;;;;33.95;9.77;;;23.00;39.10;;;;;;1023453;29;20053;-77
2022/01/30 12:07:40;;;;;;;35.60;11.10;;;23.00;39.10;;;;;;1019481;29;20027;-77
2022/01/30 12:08:50;;;;;;;31.08;8.10;;;23.00;39.20;;;;;;1015514;29;20076;-76
2022/01/30 12:09:27;;;;;;;26.30;9.02;;;23.00;39.20;;;;;;1019136;29;20028;-77
2022/01/30 12:10:19;;;;;;;31.42;7.75;;;23.00;39.40;;;;;;1023219;29;20103;-77
2022/01/30 12:10:49;;;;;;;46.33;9.32;;;22.90;39.40;;;;;;1024927;29;20023;-77
2022/01/30 12:11:38;;;;;;;22.02;7.43;;;22.90;39.20;;;;;;1024306;28;20047;-77
2022/01/30 12:12:08;;;;;;;25.75;8.25;;;22.90;39.20;;;;;;1024752;29;20027;-77
2022/01/30 12:12:50;;;;;;;32.22;9.55;;;22.90;39.20;;;;;;1024084;29;20075;-77
2022/01/30 12:13:44;;;;;;;34.33;9.15;;;22.90;39.80;;;;;;1024550;29;20019;-77
2022/01/30 12:14:20;;;;;;;32.63;8.98;;;22.90;39.20;;;;;;1024147;29;20077;-76
2022/01/30 12:14:51;;;;;;;29.58;8.85;;;22.90;39.20;;;;;;1023952;29;20619;-77
2022/01/30 12:15:42;;;;;;;32.35;8.60;;;23.00;40.10;;;;;;1024596;28;20015;-77
2022/01/30 12:16:44;;;;;;;27.70;8.10;;;22.90;39.50;;;;;;1019535;29;20549;-75
2022/01/30 12:17:14;;;;;;;26.63;8.75;;;23.00;39.30;;;;;;1019585;29;20398;-76
2022/01/30 12:17:47;;;;;;;30.02;8.30;;;22.90;39.40;;;;;;1022232;29;20098;-77
2022/01/30 12:18:44;;;;;;;30.77;8.10;;;23.00;39.50;;;;;;1023314;29;20083;-77
2022/01/30 12:19:43;;;;;;;35.13;8.60;;;22.90;39.50;;;;;;1023274;29;20106;-76
2022/01/30 12:20:13;;;;;;;26.77;8.63;;;22.90;39.60;;;;;;1023340;29;20078;-75
2022/01/30 12:21:11;;;;;;;30.00;8.60;;;22.90;39.60;;;;;;1023915;29;20043;-77
2022/01/30 12:21:42;;;;;;;29.40;8.00;;;22.90;39.60;;;;;;1023569;29;20031;-79
2022/01/30 12:22:15;;;;;;;32.95;7.68;;;22.90;39.60;;;;;;1023430;29;20046;-76
2022/01/30 12:22:47;;;;;;;25.45;7.60;;;22.90;39.70;;;;;;1022973;29;20485;-77
2022/01/30 12:23:27;;;;;;;28.05;8.82;;;22.90;39.60;;;;;;1023368;29;20094;-77
2022/01/30 12:24:25;;;;;;;21.92;7.07;;;22.90;39.50;;;;;;1023315;29;20019;-77
2022/01/30 12:25:25;;;;;;;29.48;7.53;;;22.90;39.90;;;;;;1023313;29;20032;-76
2022/01/30 12:26:03;;;;;;;33.20;8.05;;;22.90;41.10;;;;;;1019149;29;20032;-77
2022/01/30 12:26:50;;;;;;;37.78;7.72;;;22.90;39.60;;;;;;1019366;29;20091;-77
2022/01/30 12:27:20;;;;;;;28.45;8.55;;;22.90;39.80;;;;;;1019397;29;20028;-77
2022/01/30 12:27:56;;;;;;;22.65;6.78;;;22.90;40.00;;;;;;1021296;29;20032;-77
2022/01/30 12:28:50;;;;;;;41.10;9.45;;;22.90;40.40;;;;;;1023513;29;20034;-77
2022/01/30 12:29:43;;;;;;;19.80;6.18;;;22.90;39.70;;;;;;1023319;29;20027;-77
2022/01/30 12:30:29;;;;;;;28.20;7.30;;;22.90;39.80;;;;;;1016908;29;20504;-76
2022/01/30 12:31:00;;;;;;;24.05;7.15;;;22.90;40.10;;;;;;1014961;29;20055;-77
2022/01/30 12:31:34;;;;;;;23.50;7.65;;;22.90;40.30;;;;;;1019437;29;20031;-77
2022/01/30 12:32:20;;;;;;;21.92;7.40;;;22.90;39.80;;;;;;1026226;28;20024;-77
2022/01/30 12:32:52;;;;;;;20.58;7.15;;;22.90;39.60;;;;;;1027608;28;20030;-77
2022/01/30 12:33:34;;;;;;;31.05;7.18;;;22.90;39.50;;;;;;1027385;28;20111;-77
2022/01/30 12:34:09;;;;;;;30.73;8.15;;;22.90;39.80;;;;;;1027477;28;20011;-76
2022/01/30 12:34:40;;;;;;;25.02;6.28;;;23.00;39.80;;;;;;1027572;28;20011;-77
2022/01/30 12:35:11;;;;;;;25.17;6.43;;;22.90;41.30;;;;;;1027593;28;20113;-77
2022/01/30 12:35:44;;;;;;;23.13;6.90;;;23.00;39.90;;;;;;1027834;28;20030;-77
2022/01/30 12:36:19;;;;;;;20.02;6.13;;;23.00;39.60;;;;;;1027784;28;20022;-77
2022/01/30 12:36:55;;;;;;;23.85;7.50;;;23.00;39.80;;;;;;1027764;28;20025;-77
2022/01/30 12:37:31;;;;;;;26.10;7.03;;;23.00;39.70;;;;;;1027722;28;20057;-77
2022/01/30 12:38:02;;;;;;;30.35;7.80;;;23.00;39.60;;;;;;1027866;28;20034;-77
2022/01/30 12:38:34;;;;;;;25.20;6.80;;;23.00;39.60;;;;;;1027982;28;20598;-77
2022/01/30 12:39:11;;;;;;;28.17;8.23;;;23.00;39.80;;;;;;1027425;28;20031;-76
2022/01/30 12:39:42;;;;;;;38.25;7.43;;;23.00;39.80;;;;;;1028025;28;20041;-76
2022/01/30 12:40:18;;;;;;;39.83;8.77;;;23.00;40.40;;;;;;1027753;28;20027;-77
2022/01/30 12:40:49;;;;;;;32.45;8.77;;;23.00;40.80;;;;;;1027592;28;20460;-77
2022/01/30 12:41:22;;;;;;;55.03;10.60;;;23.00;40.60;;;;;;1028043;28;20074;-77
2022/01/30 12:41:52;;;;;;;60.38;10.20;;;23.00;40.60;;;;;;1027775;28;20019;-77
2022/01/30 12:42:25;;;;;;;49.55;8.77;;;23.00;40.00;;;;;;1027438;28;20023;-78
2022/01/30 12:42:55;;;;;;;31.30;6.38;;;23.00;39.90;;;;;;1027660;28;20086;-78
2022/01/30 12:43:29;;;;;;;37.45;8.73;;;23.00;40.40;;;;;;1027001;28;20462;-79
2022/01/30 12:44:05;;;;;;;37.22;8.70;;;23.10;40.30;;;;;;1027994;28;20089;-79
2022/01/30 12:44:36;;;;;;;39.75;8.57;;;23.00;40.20;;;;;;1027998;28;20019;-78
2022/01/30 12:45:09;;;;;;;40.22;8.68;;;23.10;40.20;;;;;;1027950;28;20131;-78
2022/01/30 12:45:39;;;;;;;43.63;8.38;;;23.10;40.00;;;;;;1027875;28;20589;-76
2022/01/30 12:46:12;;;;;;;57.95;10.38;;;23.10;40.10;;;;;;1027595;28;20026;-76
2022/01/30 12:46:48;;;;;;;30.75;7.45;;;23.20;40.10;;;;;;1027777;28;20026;-77
2022/01/30 12:47:19;;;;;;;29.67;8.70;;;23.10;40.10;;;;;;1025855;28;20470;-77
2022/01/30 12:47:59;;;;;;;39.63;8.68;;;23.20;41.70;;;;;;1023473;28;20024;-77
2022/01/30 12:48:29;;;;;;;26.73;8.23;;;23.10;40.10;;;;;;1023454;29;20032;-76
2022/01/30 12:49:00;;;;;;;32.95;8.60;;;23.10;40.00;;;;;;1024266;28;20035;-76
2022/01/30 12:49:33;;;;;;;59.42;10.45;;;23.10;39.90;;;;;;1024681;28;20023;-76
2022/01/30 12:50:04;;;;;;;38.58;8.18;;;23.10;40.00;;;;;;1024627;28;20110;-76